Station NMTA2 - 9468756 - Nome, Norton Sound, AK Image indicating link to RSS feed of recent meteorological observations for station NMTA2


Conditions at NMTA2 as of
(5:48 am AKDT)
1348 GMT on 09/01/2026:
     

Click on the graph icon in the table below to see a time series plot of the last five days of that observation.

5-day plot - Wind Direction Wind Direction (WDIR): NE ( 50 deg true )
5-day plot - Wind Speed Wind Speed (WSPD): 2.9 kts
5-day plot - Wind Gust Wind Gust (GST): 2.9 kts
5-day plot - Atmospheric Pressure Atmospheric Pressure (PRES):29.89 in
5-day plot - Air Temperature Air Temperature (ATMP): 35.6 °F
5-day plot - Wind Chill Wind Chill (CHILL): 32.9 °F
5-day plot - Wind Speed at 10 Meters Wind Speed at 10 meters (WSPD10M): 3.9 kts
5-day plot - Wind Speed at 20 Meters Wind Speed at 20 meters (WSPD20M): 3.9 kts
5-day plot -  Wind Speed, Wind Gust and Atmospheric Pressure Combined plot of Wind Speed, Gust, and Air Pressure
NOS Water Level Observation Network Water Level
Previous observations
TIME
(AKDT)
5-day plot - Wind Direction
WDIR
 
5-day plot - Wind Speed
WSPD
kts
5-day plot - Wind Gust
GST
kts
5-day plot - Wave Height
WVHT
ft
5-day plot - Dominant Wave Period
DPD
sec
5-day plot - Average Wave Period
APD
sec
5-day plot - Mean Wave Direction
MWD
 
5-day plot - Atmospheric Pressure
PRES
in
5-day plot - Pressure Tendency
PTDY
in
5-day plot - Air Temperature
ATMP
°F
5-day plot - Water Temperature
WTMP
°F
5-day plot - Dew Point
DEWP
°F
5-day plot - Salinity
SAL
psu
5-day plot - Visibility
VIS
nmi
5-day plot - Tide (above MLLW)
TIDE
ft
2026-09-01 05:42 am N 1.0 2.9----29.89- 36.0-----
2026-09-01 05:36 am NE 1.9 1.9----29.89- 35.6-----
2026-09-01 05:30 am NE 1.0 2.9----29.89- 36.0-----
2026-09-01 05:24 am N 1.0 2.9----29.90- 36.0-----
2026-09-01 05:18 amNNE 1.9 5.1----29.90-------
2026-09-01 05:12 am N 2.9 5.1----29.90-------
2026-09-01 05:06 am N 1.0 4.1----29.90-------
2026-09-01 05:00 am N 1.9 2.9----29.90+0.00 36.9-----
2026-09-01 04:54 amNNE 1.9 4.1----29.90- 36.3-----
2026-09-01 04:48 am N 2.9 5.1----29.90-------
2026-09-01 04:42 am NW 4.1 5.1----29.90-------
2026-09-01 04:36 amNNW 5.1 7.0----29.90-------
2026-09-01 04:30 amNNW 6.0 6.0----29.90- 37.4-----
2026-09-01 04:24 amNNW 2.9 4.1----29.90- 37.2-----
2026-09-01 04:18 amNNW 2.9 6.0----29.90-------
2026-09-01 04:12 am N 2.9 5.1----29.90-------
2026-09-01 04:06 amNNW 2.9 4.1----29.90-------
2026-09-01 04:00 am N 1.0 4.1----29.90+0.00 38.8-----
2026-09-01 03:54 amWNW 4.1 5.1----29.90- 39.2-----
2026-09-01 03:48 am NW 5.1 5.1----29.89- 39.2-----
2026-09-01 03:42 amNNW 5.1 7.0----29.90- 39.7-----
2026-09-01 03:36 amNNW 7.0 8.0----29.90- 39.2-----
2026-09-01 03:30 am N 5.1 6.0----29.89- 38.7-----
2026-09-01 03:24 amNNE 2.9 4.1----29.89- 37.9-----
2026-09-01 03:18 am N 1.9 4.1----29.89-------
2026-09-01 03:12 am N 1.9 6.0----29.90-------
2026-09-01 03:06 amNNW 6.0 7.0----29.89-------
2026-09-01 03:00 amNNW 6.0 7.0----29.89+0.00 39.7-----
2026-09-01 02:54 amNNW 5.1 6.0----29.90- 39.9-----
2026-09-01 02:48 am NW 6.0 8.0----29.90- 41.5-----
2026-09-01 02:42 amWNW 7.0 7.0----29.90- 41.0-----
2026-09-01 02:36 amWNW 7.0 8.9----29.90- 40.3-----
2026-09-01 02:30 am NW 6.0 7.0----29.90- 38.8-----
2026-09-01 02:24 am NW 6.0 7.0----29.90- 39.9-----
2026-09-01 02:18 am NW 5.1 6.0----29.90-------
2026-09-01 02:12 am NW 5.1 6.0----29.90-------
2026-09-01 02:06 am NW 5.1 5.1----29.90-------
2026-09-01 02:00 amWNW 4.1 4.1----29.90- 39.6-----
2026-09-01 01:54 amWNW 4.1 5.1----29.90- 39.7-----
2026-09-01 01:48 am NW 5.1 6.0----29.90- 40.8-----
2026-09-01 01:42 am NW 5.1 6.0----29.90- 40.6-----
2026-09-01 01:36 am NW 4.1 5.1----29.90- 41.0-----
2026-09-01 01:30 amWNW 5.1 5.1----29.90- 41.0-----
2026-09-01 01:24 am NW 5.1 5.1----29.90- 41.9-----
2026-09-01 01:18 am-------29.90-------
2026-09-01 01:12 am-------29.90-------
2026-09-01 01:06 am-------29.90-------
2026-09-01 01:00 am NW 5.1 6.0----29.90+0.00 41.9-----
2026-09-01 12:54 am NW 5.1 5.1----29.90- 42.3-----
2026-09-01 12:48 am NW 2.9 2.9----29.90-------
2026-09-01 12:42 am NW 2.9 5.1----29.90-------
2026-09-01 12:36 amWNW 5.1 6.0----29.90-------
2026-09-01 12:30 am NW 4.1 5.1----29.90- 42.6-----
2026-09-01 12:24 am NW 5.1 5.1----29.90- 43.3-----
2026-09-01 12:18 am NW 5.1 5.1----29.90-------
2026-09-01 12:12 am NW 5.1 6.0----29.90-------
2026-09-01 12:06 am NW 5.1 6.0----29.90-------
2026-09-01 12:00 am NW 7.0 8.0----29.90+0.00 43.5-----
2026-08-31 11:54 pm NW 7.0 8.0----29.90- 43.5-----
2026-08-31 11:48 pm NW 8.0 9.9----29.90- 43.7-----
2026-08-31 11:42 pmWNW 8.9 9.9----29.90- 43.7-----
2026-08-31 11:36 pm NW 8.0 8.9----29.90- 43.5-----
2026-08-31 11:30 pm NW 7.0 8.9----29.90- 43.2-----
2026-08-31 11:24 pmWNW 7.0 8.9----29.90- 43.7-----
2026-08-31 11:18 pmWNW 8.0 9.9----29.90- 43.7-----
2026-08-31 11:12 pm NW 8.9 11.1----29.90- 44.2-----
2026-08-31 11:06 pmWNW 8.9 11.1----29.90- 45.3-----
2026-08-31 11:00 pmWNW 9.9 11.1------ 45.7-----
2026-08-31 10:54 pmWNW 9.9 12.0------ 45.9-----
2026-08-31 10:48 pmWNW 11.1 13.0----29.90- 45.9-----
2026-08-31 10:42 pmWNW 11.1 13.0----29.90- 45.9-----
2026-08-31 10:36 pmWNW 11.1 13.0----29.90- 45.9-----
2026-08-31 10:30 pmWNW 9.9 13.0----29.90-------
2026-08-31 10:24 pmWNW 11.1 14.0----29.90-------
2026-08-31 10:18 pmWNW 12.0 14.0----29.90-------
2026-08-31 10:12 pmWNW 13.0 15.0----29.90-------
2026-08-31 10:06 pmWNW 13.0 15.0----29.90-------
2026-08-31 10:00 pmWNW 13.0 14.0----29.90-0.03 46.8-----
2026-08-31 09:54 pmWNW 13.0 14.0----29.90- 47.1-----
2026-08-31 09:48 pmWNW 13.0 15.0----29.90- 47.1-----
2026-08-31 09:42 pmWNW 12.0 14.0----29.90- 47.5-----
2026-08-31 09:36 pmWNW 12.0 15.0----29.90- 47.5-----
2026-08-31 09:30 pmWNW 12.0 14.0----29.90-------
2026-08-31 09:24 pmWNW 12.0 14.0----29.90-------
2026-08-31 09:18 pmWNW 13.0 14.0----29.90-------
2026-08-31 09:12 pmWNW 13.0 14.0----29.90-------
2026-08-31 09:06 pmWNW 13.0 15.0----29.90-------
2026-08-31 09:00 pmWNW 13.0 14.0----29.90-0.03 48.2-----
2026-08-31 08:54 pmWNW 14.0 17.1----29.91- 48.2-----
2026-08-31 08:48 pmWNW 15.0 15.9----29.91- 48.4-----
2026-08-31 08:42 pmWNW 12.0 14.0----29.91- 48.6-----
2026-08-31 08:36 pmWNW 13.0 15.0----29.91- 48.6-----
2026-08-31 08:30 pmWNW 13.0 15.0----29.91- 48.6-----
2026-08-31 08:24 pmWNW 14.0 15.9----29.91- 48.6-----
2026-08-31 08:18 pm W 14.0 17.1------------
2026-08-31 08:12 pm W 15.0 17.1------------
2026-08-31 08:06 pm W 15.0 17.1------------
2026-08-31 08:00 pm W 14.0 15.9----29.91-0.04 48.2-----
2026-08-31 07:54 pm W 14.0 15.9----29.91- 48.2-----
2026-08-31 07:48 pm W 14.0 18.1----29.91-------
2026-08-31 07:42 pm W 15.9 17.1----29.91-------
2026-08-31 07:36 pm W 15.9 17.1----29.91-------
2026-08-31 07:30 pm W 15.9 18.1----29.92- 48.0-----
2026-08-31 07:24 pm W 15.9 18.1----29.92- 47.8-----
2026-08-31 07:18 pm W 15.9 18.1------------
2026-08-31 07:12 pm W 15.9 18.1------------
2026-08-31 07:06 pm W 15.9 18.1------------
2026-08-31 07:00 pm W 15.9 18.1----29.93-0.03 47.8-----
2026-08-31 06:54 pm W 15.9 18.1----29.93- 47.8-----
2026-08-31 06:48 pm W 15.9 19.0----29.93- 47.8-----
2026-08-31 06:42 pm W 15.9 18.1----29.93- 47.8-----
2026-08-31 06:36 pm W 17.1 19.0----29.93- 47.7-----
2026-08-31 06:30 pm W 15.9 19.0----29.93- 47.7-----
2026-08-31 06:24 pm W 15.9 18.1----29.93- 47.7-----
2026-08-31 06:18 pm W 15.9 18.1----29.93-------
2026-08-31 06:12 pm W 14.0 18.1----29.93-------
2026-08-31 06:06 pm W 15.9 18.1----29.93-------
2026-08-31 06:00 pm W 17.1 19.0----29.93-0.04 47.7-----
2026-08-31 05:54 pm W 17.1 19.0----29.93- 47.5-----
2026-08-31 05:48 pm W 17.1 19.0----29.93- 47.5-----
2026-08-31 05:42 pm W 18.1 20.0----29.94- 47.3-----
2026-08-31 05:36 pm W 18.1 20.0----29.94- 47.5-----
2026-08-31 05:30 pm W 18.1 20.0----29.94- 47.3-----
2026-08-31 05:24 pm W 18.1 20.0----29.94- 47.5-----
2026-08-31 05:18 pm W 18.1 20.0----29.94-------
2026-08-31 05:12 pm W 18.1 21.0----29.94-------
2026-08-31 05:06 pm W 17.1 19.0----29.94-------
2026-08-31 05:00 pm W 18.1 20.0----29.94-0.02 47.5-----
2026-08-31 04:54 pm W 15.0 18.1----29.95- 47.7-----
2026-08-31 04:48 pm W 15.9 18.1----29.95-------
2026-08-31 04:42 pm W 15.0 17.1----29.95-------
2026-08-31 04:36 pm W 15.0 15.9----29.96-------
2026-08-31 04:30 pm W 13.0 15.0----29.96- 47.5-----
2026-08-31 04:24 pm W 12.0 15.0----29.96- 47.5-----
2026-08-31 04:18 pm W 12.0 14.0----29.96-------
2026-08-31 04:12 pm W 13.0 14.0----29.96-------
2026-08-31 04:06 pm W 12.0 14.0----29.96-------
2026-08-31 04:00 pm W 11.1 13.0----29.96-0.01 47.1-----
2026-08-31 03:54 pm W 12.0 13.0----29.96- 47.3-----
2026-08-31 03:48 pm W 9.9 11.1----29.96-------
2026-08-31 03:42 pm W 8.9 11.1----29.96-------
2026-08-31 03:36 pm W 9.9 11.1----29.96-------
2026-08-31 02:48 pm NW 7.0 11.1----29.97- 45.9-----
2026-08-31 02:42 pm W 8.0 9.9----29.97- 45.9-----
2026-08-31 02:36 pmWNW 8.9 11.1----29.97- 46.0-----
2026-08-31 02:30 pm W 8.0 9.9----29.97- 45.9-----
2026-08-31 02:24 pm W 8.9 11.1----29.97- 45.7-----
2026-08-31 02:18 pm W 8.9 11.1----29.97- 45.7-----
2026-08-31 02:12 pm W 8.9 12.0----29.97- 45.7-----
2026-08-31 02:06 pmWNW 9.9 11.1----29.97- 45.7-----
2026-08-31 02:00 pmWNW 7.0 8.0----29.97+0.00 45.3-----
2026-08-31 01:54 pmWNW 8.0 9.9----29.97- 45.3-----
2026-08-31 01:48 pmWNW 8.0 11.1----29.97- 45.3-----
2026-08-31 01:42 pm W 8.9 12.0----29.97- 45.3-----
2026-08-31 01:36 pmWNW 8.9 11.1----29.97- 45.3-----
2026-08-31 01:30 pm W 8.9 8.9----29.97- 45.1-----
2026-08-31 01:24 pmWNW 6.0 8.9----29.97- 45.0-----
2026-08-31 01:18 pm W 8.9 12.0----29.97-------
2026-08-31 01:12 pm W 9.9 12.0----29.97-------
2026-08-31 01:06 pm W 11.1 13.0----29.97-------
2026-08-31 01:00 pm W 7.0 8.0----29.97+0.01 45.0-----
2026-08-31 12:54 pm W 5.1 8.0----29.97- 44.8-----
2026-08-31 12:48 pm W 5.1 7.0----29.97- 44.8-----
2026-08-31 12:42 pmWNW 6.0 7.0----29.97- 44.4-----
2026-08-31 12:36 pmWNW 5.1 7.0----29.97- 44.1-----
2026-08-31 12:30 pmWNW 1.9 4.1----29.97- 43.5-----
2026-08-31 12:24 pm NW 2.9 4.1----29.97- 43.7-----
2026-08-31 12:18 pm NW 1.9 4.1----29.98-------
2026-08-31 12:12 pmWNW 2.9 4.1----29.97-------
2026-08-31 12:06 pmWNW 1.0 2.9----29.97-------
2026-08-31 12:00 pmNNW 2.9 2.9----29.97+0.02 43.2-----
2026-08-31 11:54 am- 0.0 1.9----29.97- 43.0-----
2026-08-31 11:48 am- 0.0 4.1----29.97- 43.2-----
2026-08-31 11:42 am- 0.0 1.0----29.97- 43.2-----
2026-08-31 11:36 am- 0.0 1.0----29.97- 43.0-----
2026-08-31 11:30 am SW 1.9 1.9----29.97- 42.6-----
2026-08-31 11:24 am- 0.0 1.9----29.97- 42.4-----
2026-08-31 11:18 am- 0.0 1.0----29.97-------
2026-08-31 11:12 am- 0.0 1.0----29.97-------
2026-08-31 11:06 am SE 1.0 1.9----29.97-------
2026-08-31 11:00 am E 1.9 2.9----29.97+0.03 42.1-----
2026-08-31 10:54 am E 1.9 4.1----29.97- 41.5-----
2026-08-31 10:48 am E 2.9 2.9----29.97- 41.5-----
2026-08-31 10:42 amESE 1.0 1.9----29.97- 41.5-----
2026-08-31 10:36 am- 0.0 2.9----29.97- 41.4-----
2026-08-31 10:30 am E 1.9 2.9----29.97- 41.2-----
2026-08-31 10:24 amSSE 1.0 2.9----29.97- 41.0-----
2026-08-31 10:18 am SE 1.9 2.9----29.97-------
2026-08-31 10:12 am E 1.9 2.9----29.97-------
2026-08-31 10:06 amENE 1.9 2.9----29.96-------
2026-08-31 10:00 am E 2.9 4.1----29.96+0.02 40.6-----
2026-08-31 09:54 amESE 2.9 4.1----29.96- 40.5-----
2026-08-31 09:48 amENE 1.9 2.9----29.96-------
2026-08-31 09:42 am E 1.9 2.9----29.96-------
2026-08-31 09:36 am E 1.9 2.9----29.96-------
2026-08-31 09:30 am E 1.9 2.9----29.96- 39.7-----
2026-08-31 09:24 am E 1.9 2.9----29.96- 40.1-----
2026-08-31 09:18 amSSE 1.9 2.9----29.96-------
2026-08-31 09:12 amSSE 1.9 2.9----29.95-------
2026-08-31 09:06 amSSE 1.9 5.1----29.95-------
2026-08-31 09:00 amENE 2.9 5.1----29.95+0.02 38.7-----
2026-08-31 08:54 am NE 1.9 1.9----29.95- 39.6-----
2026-08-31 08:48 am E 1.9 2.9----29.95- 38.8-----
2026-08-31 08:42 amENE 1.9 2.9----29.95- 37.9-----
2026-08-31 08:36 amENE 2.9 2.9----29.95- 37.2-----
2026-08-31 08:30 am NE 2.9 2.9----29.94- 37.6-----
2026-08-31 08:24 am NE 1.0 4.1----29.95- 38.7-----
2026-08-31 08:18 amNNE 2.9 6.0----29.94-------
2026-08-31 08:12 am NW 5.1 7.0----29.95-------
2026-08-31 08:06 am NW 6.0 7.0----29.94-------
2026-08-31 08:00 am NW 5.1 6.0----29.94+0.02 39.4-----
2026-08-31 07:54 am NW 4.1 7.0----29.94- 39.4-----
2026-08-31 07:48 am N 6.0 8.0----29.94- 39.6-----
2026-08-31 07:42 am- 0.0 4.1----29.95- 38.5-----
2026-08-31 07:36 am E 2.9 8.9----29.94- 38.7-----
2026-08-31 07:30 amWNW 8.9 12.0----29.94- 40.3-----
2026-08-31 07:24 amWNW 11.1 13.0----29.94- 39.9-----
2026-08-31 07:18 amWNW 11.1 13.0----29.94-------
2026-08-31 07:12 amWNW 12.0 13.0----29.94-------
2026-08-31 07:06 amWNW 12.0 14.0----29.94-------
2026-08-31 07:00 am NW 12.0 13.0----29.94+0.02 39.9-----
2026-08-31 06:54 am NW 11.1 12.0----29.93- 39.6-----
2026-08-31 06:48 am NW 11.1 12.0----29.93- 39.9-----
2026-08-31 06:42 am NW 8.0 11.1----29.93- 39.7-----
2026-08-31 06:36 am NW 8.0 8.9----29.94- 39.9-----
2026-08-31 06:30 amNNW 8.0 11.1----29.93- 39.9-----
2026-08-31 06:24 am NW 9.9 11.1----29.93- 40.6-----
2026-08-31 06:18 am NW 8.9 12.0----29.93-------
2026-08-31 06:12 amWNW 9.9 12.0----29.93-------
2026-08-31 06:06 amWNW 9.9 11.1----29.93-------
2026-08-31 06:00 am NW 6.0 8.0----29.93+0.02 40.1-----
2026-08-31 05:54 amWNW 7.0 8.0----29.93- 40.1-----